createdAt,value
2022-10-19T00:01:11.094Z,100.00
2022-10-19T00:03:40.280Z,100.00
2022-10-19T00:06:14.937Z,99.47
2022-10-19T00:08:43.498Z,100.00
2022-10-19T00:11:11.489Z,100.00
2022-10-19T00:13:39.623Z,99.85
2022-10-19T00:16:11.551Z,100.00
2022-10-19T00:18:39.465Z,99.93
2022-10-19T00:21:09.257Z,100.00
2022-10-19T00:23:38.709Z,100.00
2022-10-19T00:26:06.716Z,100.00
2022-10-19T00:28:36.206Z,100.00
2022-10-19T00:31:08.065Z,100.00
2022-10-19T00:33:36.973Z,100.00
2022-10-19T00:36:06.038Z,100.00
2022-10-19T00:38:33.752Z,100.00
2022-10-19T00:41:02.777Z,99.77
2022-10-19T00:43:31.647Z,100.00
2022-10-19T00:45:59.597Z,100.00
2022-10-19T00:48:31.835Z,100.00
2022-10-19T00:51:00.329Z,100.00
2022-10-19T00:53:30.699Z,100.00
2022-10-19T00:56:00.499Z,100.00
2022-10-19T00:58:30.282Z,100.00
2022-10-19T01:01:01.591Z,100.00
2022-10-19T01:03:29.557Z,100.00
2022-10-19T01:05:57.843Z,100.00
2022-10-19T01:08:26.294Z,100.00
2022-10-19T01:11:07.421Z,100.00
2022-10-19T01:13:47.138Z,100.00
2022-10-19T01:16:24.292Z,100.00
2022-10-19T01:19:02.183Z,99.56
2022-10-19T01:21:35.463Z,99.93
2022-10-19T01:24:38.359Z,100.00
2022-10-19T01:27:29.751Z,100.00
2022-10-19T01:30:02.987Z,100.00
2022-10-19T01:32:41.313Z,100.00
2022-10-19T01:35:17.692Z,100.00
2022-10-19T01:37:50.224Z,100.00
2022-10-19T01:40:25.783Z,100.00
2022-10-19T01:43:01.092Z,100.00
2022-10-19T01:45:35.709Z,100.00
2022-10-19T01:48:08.008Z,100.00
2022-10-19T01:50:40.807Z,100.00
2022-10-19T01:53:11.064Z,100.00
2022-10-19T01:55:42.934Z,100.00
2022-10-19T01:58:16.537Z,100.00
2022-10-19T02:00:48.728Z,100.00
2022-10-19T02:03:18.407Z,100.00
2022-10-19T02:05:48.297Z,100.00
2022-10-19T02:08:19.364Z,100.00
2022-10-19T02:10:48.585Z,100.00
2022-10-19T02:13:19.421Z,100.00
2022-10-19T02:15:52.880Z,100.00
2022-10-19T02:18:27.095Z,100.00
2022-10-19T02:20:55.397Z,100.00
2022-10-19T02:23:26.020Z,100.00
2022-10-19T02:25:54.944Z,100.00
2022-10-19T02:30:58.973Z,100.00
2022-10-19T02:33:28.847Z,100.00
2022-10-19T02:35:58.722Z,100.00
2022-10-19T02:38:27.239Z,100.00
2022-10-19T02:41:02.910Z,100.00
2022-10-19T02:43:33.955Z,100.00
2022-10-19T02:46:07.518Z,100.00
2022-10-19T02:48:37.668Z,100.00
2022-10-19T02:51:05.756Z,100.00
2022-10-19T02:53:33.530Z,100.00
2022-10-19T02:56:01.567Z,100.00
2022-10-19T02:58:29.393Z,100.00
2022-10-19T03:00:57.086Z,100.00
2022-10-19T03:03:26.105Z,100.00
2022-10-19T03:05:55.669Z,100.00
2022-10-19T03:08:23.385Z,100.00
2022-10-19T03:10:51.412Z,100.00
2022-10-19T03:13:19.079Z,100.00
2022-10-19T03:15:47.996Z,100.00
2022-10-19T03:18:17.318Z,100.00
2022-10-19T03:20:46.703Z,100.00
2022-10-19T03:23:14.751Z,100.00
2022-10-19T03:25:42.802Z,100.00
2022-10-19T03:28:10.340Z,100.00
2022-10-19T03:30:43.200Z,100.00
2022-10-19T03:33:10.808Z,100.00
2022-10-19T03:35:39.166Z,100.00
2022-10-19T03:38:08.257Z,100.00
2022-10-19T03:40:37.069Z,100.00
2022-10-19T03:43:04.718Z,100.00
2022-10-19T03:45:33.209Z,100.00
2022-10-19T03:48:01.047Z,100.00
2022-10-19T03:50:28.578Z,100.00
2022-10-19T03:52:59.018Z,100.00
2022-10-19T03:55:30.046Z,100.00
2022-10-19T03:57:58.275Z,100.00
2022-10-19T04:00:25.881Z,100.00
2022-10-19T04:02:54.024Z,100.00
2022-10-19T04:05:21.626Z,100.00
2022-10-19T04:07:49.458Z,100.00
2022-10-19T04:10:17.147Z,100.00
2022-10-19T04:12:50.487Z,100.00
2022-10-19T04:15:21.421Z,100.00
2022-10-19T04:17:48.991Z,100.00
2022-10-19T04:20:17.622Z,100.00
2022-10-19T04:22:47.750Z,100.00
2022-10-19T04:25:15.739Z,100.00
2022-10-19T04:27:43.319Z,100.00
2022-10-19T04:30:12.900Z,100.00
2022-10-19T04:32:40.656Z,100.00
2022-10-19T04:35:10.263Z,100.00
2022-10-19T04:37:38.493Z,100.00
2022-10-19T04:40:11.490Z,100.00
2022-10-19T04:42:42.172Z,100.00
2022-10-19T04:45:12.075Z,100.00
2022-10-19T04:47:39.586Z,100.00
2022-10-19T04:50:07.692Z,100.00
2022-10-19T04:52:35.423Z,100.00
2022-10-19T04:55:03.147Z,100.00
2022-10-19T04:57:31.139Z,100.00
2022-10-19T04:59:58.925Z,100.00
2022-10-19T05:02:28.005Z,100.00
2022-10-19T05:04:55.632Z,100.00
2022-10-19T05:07:23.303Z,100.00
2022-10-19T05:09:55.868Z,100.00
2022-10-19T05:12:23.426Z,100.00
2022-10-19T05:14:51.047Z,100.00
2022-10-19T05:17:18.767Z,100.00
2022-10-19T05:19:48.302Z,100.00
2022-10-19T05:22:15.936Z,100.00
2022-10-19T05:24:43.575Z,100.00
2022-10-19T05:27:13.103Z,100.00
2022-10-19T05:29:40.762Z,100.00
2022-10-19T05:32:08.446Z,100.00
2022-10-19T05:34:36.180Z,100.00
2022-10-19T05:37:05.467Z,100.00
2022-10-19T05:39:33.802Z,100.00
2022-10-19T05:42:02.500Z,100.00
2022-10-19T05:44:30.531Z,100.00
2022-10-19T05:46:59.698Z,100.00
2022-10-19T05:49:27.550Z,100.00
2022-10-19T05:51:55.099Z,100.00
2022-10-19T05:54:28.914Z,100.00
2022-10-19T05:56:57.002Z,100.00
2022-10-19T05:59:24.647Z,100.00
2022-10-19T06:01:52.375Z,100.00
2022-10-19T06:04:20.034Z,100.00
2022-10-19T06:06:47.597Z,100.00
2022-10-19T06:09:15.764Z,100.00
2022-10-19T06:11:44.673Z,100.00
2022-10-19T06:14:15.521Z,100.00
2022-10-19T06:16:43.436Z,100.00
2022-10-19T06:19:11.132Z,100.00
2022-10-19T06:21:40.722Z,100.00
2022-10-19T06:24:12.863Z,100.00
2022-10-19T06:26:40.487Z,100.00
2022-10-19T06:29:09.909Z,100.00
2022-10-19T06:31:37.543Z,100.00
2022-10-19T06:34:05.643Z,100.00
2022-10-19T06:36:34.109Z,100.00
2022-10-19T06:39:02.161Z,100.00
2022-10-19T06:41:31.362Z,100.00
2022-10-19T06:43:59.226Z,100.00
2022-10-19T06:46:28.774Z,100.00
2022-10-19T06:48:58.362Z,100.00
2022-10-19T06:51:28.276Z,100.00
2022-10-19T06:53:57.542Z,100.00
2022-10-19T06:56:25.813Z,100.00
2022-10-19T06:58:54.066Z,100.00
2022-10-19T07:01:22.640Z,100.00
2022-10-19T07:03:52.796Z,100.00
2022-10-19T07:06:21.303Z,100.00
2022-10-19T07:08:49.134Z,100.00
2022-10-19T07:11:19.470Z,100.00
2022-10-19T07:13:47.378Z,100.00
2022-10-19T07:16:20.565Z,100.00
2022-10-19T07:18:52.433Z,100.00
2022-10-19T07:21:22.451Z,100.00
2022-10-19T07:23:50.405Z,100.00
2022-10-19T07:26:21.568Z,100.00
2022-10-19T07:28:49.818Z,100.00
2022-10-19T07:31:22.340Z,100.00
2022-10-19T07:33:53.753Z,100.00
2022-10-19T07:36:23.753Z,100.00
2022-10-19T07:38:51.733Z,98.00
2022-10-19T07:41:22.688Z,94.71
2022-10-19T07:43:51.418Z,92.78
2022-10-19T07:46:20.824Z,92.00
2022-10-19T07:48:49.282Z,91.14
2022-10-19T07:51:19.830Z,89.38
2022-10-19T07:53:47.761Z,88.26
2022-10-19T07:56:17.662Z,86.96
2022-10-19T07:58:45.773Z,86.88
2022-10-19T08:01:15.337Z,86.31
2022-10-19T08:04:31.738Z,85.59
2022-10-19T08:06:33.483Z,84.64
2022-10-19T08:09:01.097Z,82.15
2022-10-19T08:11:32.104Z,80.72
2022-10-19T08:14:01.650Z,81.08
2022-10-19T08:16:31.483Z,80.03
2022-10-19T08:19:01.158Z,79.30
2022-10-19T08:21:30.852Z,77.98
2022-10-19T08:24:00.504Z,78.57
2022-10-19T08:26:29.648Z,77.43
2022-10-19T08:29:00.089Z,76.55
2022-10-19T08:31:28.350Z,75.88
2022-10-19T08:33:55.931Z,77.69
2022-10-19T08:36:24.513Z,76.63
2022-10-19T08:38:52.173Z,75.44
2022-10-19T08:41:35.742Z,75.27
2022-10-19T08:44:24.038Z,75.01
2022-10-19T08:47:02.715Z,73.77
2022-10-19T08:49:32.516Z,75.73
2022-10-19T08:52:05.991Z,72.90
2022-10-19T08:57:28.751Z,73.26
2022-10-19T09:00:02.660Z,72.97
2022-10-19T09:02:42.345Z,73.14
2022-10-19T09:05:16.313Z,71.66
2022-10-19T09:07:44.296Z,72.42
2022-10-19T09:10:20.655Z,71.33
2022-10-19T09:12:58.484Z,71.33
2022-10-19T09:15:34.038Z,71.87
2022-10-19T09:18:02.589Z,69.21
2022-10-19T09:20:37.317Z,68.96
2022-10-19T09:23:13.583Z,70.71
2022-10-19T09:25:41.693Z,69.56
2022-10-19T09:28:31.561Z,68.10
2022-10-19T09:31:05.101Z,69.03
2022-10-19T09:33:38.456Z,68.26
2022-10-19T09:36:07.918Z,67.50
2022-10-19T09:38:35.905Z,67.39
2022-10-19T09:41:16.163Z,65.88
2022-10-19T09:43:50.716Z,66.22
2022-10-19T09:46:29.657Z,66.43
2022-10-19T09:49:00.364Z,67.17
2022-10-19T09:51:40.080Z,66.25
2022-10-19T09:54:23.859Z,66.36
2022-10-19T09:56:56.205Z,65.04
2022-10-19T09:59:30.373Z,64.23
2022-10-19T10:02:18.003Z,63.86
2022-10-19T10:04:47.358Z,64.15
2022-10-19T10:07:18.193Z,65.28
2022-10-19T10:09:46.355Z,62.92
2022-10-19T10:12:15.768Z,64.54
2022-10-19T10:14:53.927Z,61.52
2022-10-19T10:17:28.115Z,63.67
2022-10-19T10:20:06.935Z,61.43
2022-10-19T10:22:37.316Z,61.59
2022-10-19T10:25:16.432Z,62.01
2022-10-19T10:27:55.849Z,60.93
2022-10-19T10:30:29.005Z,60.66
2022-10-19T10:33:04.672Z,61.46
2022-10-19T10:35:48.735Z,60.32
2022-10-19T10:38:21.909Z,60.37
2022-10-19T10:40:51.885Z,59.44
2022-10-19T10:43:25.191Z,60.78
2022-10-19T10:46:03.984Z,61.16
2022-10-19T10:48:36.297Z,59.45
2022-10-19T10:51:10.528Z,61.32
2022-10-19T10:53:40.563Z,59.98
2022-10-19T10:56:23.036Z,58.92
2022-10-19T10:58:57.701Z,58.88
2022-10-19T11:01:33.332Z,59.26
2022-10-19T11:04:04.886Z,59.52
2022-10-19T11:06:39.551Z,58.10
2022-10-19T11:09:17.612Z,58.93
2022-10-19T11:11:47.667Z,56.91
2022-10-19T11:14:36.115Z,58.61
2022-10-19T11:17:12.719Z,58.92
2022-10-19T11:19:44.133Z,58.31
2022-10-19T11:22:23.586Z,58.75
2022-10-19T11:25:06.965Z,58.40
2022-10-19T11:27:49.951Z,58.64
2022-10-19T11:30:20.444Z,57.32
2022-10-19T11:33:01.490Z,56.98
2022-10-19T11:35:44.769Z,56.25
2022-10-19T11:38:29.633Z,56.72
2022-10-19T11:41:22.600Z,56.26
2022-10-19T11:44:02.737Z,56.75
2022-10-19T11:46:38.550Z,56.35
2022-10-19T11:49:20.619Z,56.63
2022-10-19T11:51:55.605Z,56.19
2022-10-19T11:54:35.821Z,55.98
2022-10-19T11:57:13.422Z,56.23
2022-10-19T12:00:03.716Z,55.62
2022-10-19T12:03:17.779Z,55.08
2022-10-19T12:05:59.270Z,56.13
2022-10-19T12:08:33.270Z,57.63
2022-10-19T12:11:08.873Z,56.25
2022-10-19T12:13:44.534Z,57.63
2022-10-19T12:16:14.374Z,57.41
2022-10-19T12:18:47.745Z,56.20
2022-10-19T12:21:23.417Z,56.21
2022-10-19T12:23:52.317Z,56.87
2022-10-19T12:26:22.032Z,57.01
2022-10-19T12:28:53.908Z,56.03
2022-10-19T12:31:22.767Z,57.13
2022-10-19T12:33:59.461Z,56.91
2022-10-19T12:36:38.860Z,56.41
2022-10-19T12:39:16.015Z,57.09
2022-10-19T12:41:48.689Z,57.06
2022-10-19T12:44:57.874Z,56.52
2022-10-19T12:47:27.095Z,56.68
2022-10-19T12:49:55.746Z,57.97
2022-10-19T12:52:40.741Z,58.08
2022-10-19T12:55:27.907Z,58.82
2022-10-19T12:58:05.459Z,59.38
2022-10-19T13:00:35.243Z,58.06
2022-10-19T13:03:07.527Z,58.31
2022-10-19T13:05:36.160Z,58.38
2022-10-19T13:08:10.636Z,58.76
2022-10-19T13:10:41.577Z,58.49
2022-10-19T13:13:45.452Z,60.15
2022-10-19T13:16:46.539Z,59.22
2022-10-19T13:19:21.791Z,60.78
2022-10-19T13:22:06.078Z,60.73
2022-10-19T13:24:37.394Z,59.76
2022-10-19T13:27:36.872Z,59.63
2022-10-19T13:30:06.297Z,59.61
2022-10-19T13:32:43.578Z,59.98
2022-10-19T13:35:31.100Z,60.04
2022-10-19T13:38:31.917Z,60.29
2022-10-19T13:41:19.571Z,60.48
2022-10-19T13:43:56.398Z,60.89
2022-10-19T13:46:53.929Z,60.92
2022-10-19T13:49:36.252Z,61.21
2022-10-19T13:52:19.796Z,61.26
2022-10-19T13:55:05.392Z,60.91
2022-10-19T13:57:55.317Z,60.90
2022-10-19T14:00:27.196Z,61.50
2022-10-19T14:03:03.588Z,62.14
2022-10-19T14:06:11.692Z,62.13
2022-10-19T14:09:25.426Z,62.80
2022-10-19T14:12:02.515Z,64.43
2022-10-19T14:17:15.927Z,66.13
2022-10-19T14:19:47.372Z,66.57
2022-10-19T14:22:26.477Z,66.93
2022-10-19T14:25:00.827Z,67.41
2022-10-19T14:27:30.180Z,67.69
2022-10-19T14:30:02.758Z,67.85
2022-10-19T14:32:34.368Z,68.13
2022-10-19T14:37:42.684Z,68.60
2022-10-19T14:40:27.904Z,68.42
2022-10-19T14:42:57.105Z,68.05
2022-10-19T14:45:29.169Z,67.65
2022-10-19T14:48:00.210Z,68.21
2022-10-19T14:50:40.216Z,68.23
2022-10-19T14:53:32.726Z,68.66
2022-10-19T14:56:06.104Z,69.58
2022-10-19T14:58:39.736Z,69.19
2022-10-19T15:01:10.718Z,69.28
2022-10-19T15:03:43.599Z,69.25
2022-10-19T15:06:19.477Z,68.84
2022-10-19T15:08:51.738Z,68.63
2022-10-19T15:11:26.146Z,68.90
2022-10-19T15:14:00.686Z,68.69
2022-10-19T15:16:41.313Z,68.86
2022-10-19T15:19:18.226Z,69.28
2022-10-19T15:22:05.943Z,69.38
2022-10-19T15:24:33.907Z,69.63
2022-10-19T15:27:09.693Z,69.92
2022-10-19T15:29:37.789Z,70.05
2022-10-19T15:32:21.681Z,70.75
2022-10-19T15:34:49.469Z,70.58
2022-10-19T15:37:24.102Z,71.06
2022-10-19T15:39:52.984Z,71.06
2022-10-19T15:42:36.859Z,71.35
2022-10-19T15:45:25.345Z,71.52
2022-10-19T15:48:25.336Z,71.46
2022-10-19T15:50:54.192Z,71.75
2022-10-19T15:53:22.912Z,71.76
2022-10-19T15:55:50.738Z,71.09
2022-10-19T15:58:18.519Z,70.95
2022-10-19T16:00:46.660Z,70.85
2022-10-19T16:03:15.794Z,71.00
2022-10-19T16:05:49.168Z,70.89
2022-10-19T16:08:16.865Z,71.00
2022-10-19T16:10:44.636Z,71.30
2022-10-19T16:13:12.300Z,71.31
2022-10-19T16:15:41.241Z,71.40
2022-10-19T16:18:11.319Z,71.71
2022-10-19T16:20:43.294Z,71.69
2022-10-19T16:23:11.452Z,71.89
2022-10-19T16:25:39.192Z,72.17
2022-10-19T16:28:06.747Z,72.42
2022-10-19T16:30:34.719Z,72.77
2022-10-19T16:33:02.537Z,73.09
2022-10-19T16:35:31.280Z,73.06
2022-10-19T16:38:00.293Z,73.86
2022-10-19T16:40:28.149Z,74.11
2022-10-19T16:42:56.182Z,74.12
2022-10-19T16:45:24.025Z,74.45
2022-10-19T16:47:51.793Z,74.71
2022-10-19T16:50:19.641Z,74.95
2022-10-19T16:52:47.539Z,75.33
2022-10-19T16:55:16.736Z,75.50
2022-10-19T16:57:45.329Z,75.74
2022-10-19T17:00:13.426Z,75.48
2022-10-19T17:02:45.697Z,75.68
2022-10-19T17:05:14.483Z,75.78
2022-10-19T17:07:42.356Z,76.18
2022-10-19T17:10:10.398Z,76.44
2022-10-19T17:12:41.442Z,76.69
2022-10-19T17:18:00.405Z,76.86
2022-10-19T17:20:27.977Z,76.79
2022-10-19T17:22:55.570Z,77.17
2022-10-19T17:25:23.227Z,77.23
2022-10-19T17:27:53.391Z,77.36
2022-10-19T17:30:21.119Z,77.37
2022-10-19T17:32:48.784Z,78.00
2022-10-19T17:35:16.556Z,78.27
2022-10-19T17:37:44.222Z,78.55
2022-10-19T17:40:13.080Z,78.77
2022-10-19T17:42:41.122Z,79.12
2022-10-19T17:45:11.246Z,79.71
2022-10-19T17:47:39.378Z,79.90
2022-10-19T17:50:08.920Z,80.00
2022-10-19T17:52:36.982Z,80.46
2022-10-19T17:55:12.249Z,80.49
2022-10-19T17:57:40.423Z,80.73
2022-10-19T18:00:11.393Z,80.84
2022-10-19T18:02:39.483Z,81.06
2022-10-19T18:05:07.814Z,81.34
2022-10-19T18:07:35.623Z,81.58
2022-10-19T18:10:03.770Z,81.37
2022-10-19T18:12:35.391Z,81.30
2022-10-19T18:15:03.291Z,81.81
2022-10-19T18:17:33.334Z,82.14
2022-10-19T18:20:00.937Z,82.52
2022-10-19T18:22:28.811Z,83.02
2022-10-19T18:24:56.463Z,83.37
2022-10-19T18:27:24.315Z,82.87
2022-10-19T18:29:53.209Z,83.52
2022-10-19T18:32:21.188Z,84.33
2022-10-19T18:34:50.467Z,84.73
2022-10-19T18:37:18.214Z,84.35
2022-10-19T18:39:46.760Z,85.42
2022-10-19T18:42:14.533Z,85.55
2022-10-19T18:44:42.657Z,86.25
2022-10-19T18:47:10.264Z,86.54
2022-10-19T18:49:37.883Z,86.63
2022-10-19T18:52:06.912Z,86.68
2022-10-19T18:54:34.498Z,86.67
2022-10-19T18:57:02.378Z,87.05
2022-10-19T18:59:30.754Z,88.02
2022-10-19T19:01:58.423Z,87.95
2022-10-19T19:04:26.232Z,88.00
2022-10-19T19:06:54.813Z,88.20
2022-10-19T19:09:23.868Z,87.96
2022-10-19T19:11:51.948Z,88.67
2022-10-19T19:14:19.884Z,89.09
2022-10-19T19:16:47.988Z,88.99
2022-10-19T19:19:17.051Z,90.23
2022-10-19T19:21:46.097Z,90.39
2022-10-19T19:24:15.698Z,90.57
2022-10-19T19:26:50.463Z,88.37
2022-10-19T19:29:20.165Z,89.01
2022-10-19T19:31:48.682Z,89.78
2022-10-19T19:34:17.289Z,91.17
2022-10-19T19:36:45.598Z,91.09
2022-10-19T19:39:13.667Z,91.74
2022-10-19T19:41:42.033Z,91.53
2022-10-19T19:44:11.284Z,90.58
2022-10-19T19:46:40.010Z,91.31
2022-10-19T19:49:07.702Z,90.41
2022-10-19T19:51:36.126Z,91.97
2022-10-19T19:54:04.465Z,92.88
2022-10-19T19:56:32.552Z,91.87
2022-10-19T19:59:01.318Z,91.25
2022-10-19T20:01:31.319Z,92.04
2022-10-19T20:03:59.652Z,92.04
2022-10-19T20:06:27.725Z,92.71
2022-10-19T20:08:56.586Z,93.26
2022-10-19T20:11:26.990Z,94.09
2022-10-19T20:13:55.487Z,92.89
2022-10-19T20:16:28.212Z,93.67
2022-10-19T20:19:01.170Z,94.68
2022-10-19T20:21:29.132Z,95.01
2022-10-19T20:23:57.756Z,94.83
2022-10-19T20:26:26.074Z,95.76
2022-10-19T20:28:53.788Z,93.67
2022-10-19T20:31:21.892Z,93.20
2022-10-19T20:33:50.472Z,93.77
2022-10-19T20:36:21.336Z,94.68
2022-10-19T20:38:50.700Z,95.20
2022-10-19T20:41:19.605Z,95.79
2022-10-19T20:43:47.249Z,96.18
2022-10-19T20:46:17.864Z,97.25
2022-10-19T20:48:46.210Z,97.28
2022-10-19T20:51:16.034Z,97.63
2022-10-19T20:53:47.207Z,97.01
2022-10-19T20:56:16.842Z,97.81
2022-10-19T20:58:44.850Z,97.72
2022-10-19T21:01:15.293Z,97.55
2022-10-19T21:03:46.399Z,96.75
2022-10-19T21:06:14.607Z,96.17
2022-10-19T21:08:42.557Z,95.40
2022-10-19T21:11:16.643Z,94.95
2022-10-19T21:13:45.347Z,93.88
2022-10-19T21:16:15.639Z,93.00
2022-10-19T21:18:45.086Z,94.03
2022-10-19T21:21:14.385Z,95.16
2022-10-19T21:23:42.442Z,95.08
2022-10-19T21:26:10.398Z,95.19
2022-10-19T21:28:44.978Z,94.54
2022-10-19T21:31:13.042Z,94.13
2022-10-19T21:33:41.010Z,93.00
2022-10-19T21:36:09.362Z,92.60
2022-10-19T21:38:37.198Z,91.53
2022-10-19T21:41:07.246Z,90.43
2022-10-19T21:43:35.626Z,90.04
2022-10-19T21:46:06.875Z,88.58
2022-10-19T21:48:35.230Z,87.85
2022-10-19T21:51:16.527Z,87.58
2022-10-19T21:53:44.295Z,86.00
2022-10-19T21:56:11.911Z,85.71
2022-10-19T21:58:44.834Z,85.40
2022-10-19T22:01:17.095Z,84.30
2022-10-19T22:03:45.201Z,83.80
2022-10-19T22:06:13.507Z,83.93
2022-10-19T22:08:45.286Z,84.53
2022-10-19T22:11:14.317Z,83.84
2022-10-19T22:13:43.026Z,84.84
2022-10-19T22:16:13.148Z,85.10
2022-10-19T22:18:43.345Z,84.59
2022-10-19T22:21:12.807Z,84.27
2022-10-19T22:23:40.958Z,83.19
2022-10-19T22:26:13.567Z,82.70
2022-10-19T22:28:41.075Z,82.35
2022-10-19T22:31:09.317Z,82.42
2022-10-19T22:33:37.711Z,82.18
2022-10-19T22:36:08.825Z,82.03
2022-10-19T22:38:38.163Z,80.74
2022-10-19T22:41:43.285Z,80.58
2022-10-19T22:44:47.864Z,80.25
2022-10-19T22:47:53.007Z,80.10
2022-10-19T22:50:57.438Z,80.20
2022-10-19T22:53:26.616Z,80.35
2022-10-19T22:55:54.798Z,80.74
2022-10-19T22:58:22.357Z,81.04
2022-10-19T23:01:02.057Z,81.85
2022-10-19T23:03:30.312Z,82.78
2022-10-19T23:05:57.927Z,83.41
2022-10-19T23:08:27.339Z,84.25
2022-10-19T23:10:55.288Z,84.24
2022-10-19T23:13:23.112Z,84.15
2022-10-19T23:15:50.785Z,84.17
2022-10-19T23:18:21.628Z,84.88
2022-10-19T23:20:53.996Z,84.51
2022-10-19T23:23:22.160Z,84.05
2022-10-19T23:26:02.929Z,83.59
2022-10-19T23:28:32.237Z,82.92
2022-10-19T23:31:04.404Z,82.08
2022-10-19T23:33:33.816Z,81.21
2022-10-19T23:36:03.840Z,80.46
2022-10-19T23:38:31.626Z,79.67
2022-10-19T23:41:00.981Z,79.09
2022-10-19T23:43:28.623Z,78.61
2022-10-19T23:45:56.330Z,78.64
2022-10-19T23:48:24.980Z,77.83
2022-10-19T23:51:00.293Z,76.76
2022-10-19T23:53:29.963Z,76.70
2022-10-19T23:56:04.366Z,76.50
2022-10-19T23:58:34.728Z,76.27
